sensor_id;sensor_type;location;lat;lon;timestamp;pressure;altitude;pressure_sealevel;temperature;humidity
71145;BME280;58812;47.698;17.726;2024-02-14T00:01:14;100762.31;;;1.28;97.06
71145;BME280;58812;47.698;17.726;2024-02-14T00:03:40;100759.75;;;1.27;97.10
71145;BME280;58812;47.698;17.726;2024-02-14T00:06:05;100772.78;;;1.30;97.35
71145;BME280;58812;47.698;17.726;2024-02-14T00:08:31;100766.91;;;1.25;97.90
71145;BME280;58812;47.698;17.726;2024-02-14T00:10:57;100770.69;;;1.19;98.21
71145;BME280;58812;47.698;17.726;2024-02-14T00:13:22;100776.03;;;1.18;98.00
71145;BME280;58812;47.698;17.726;2024-02-14T00:15:47;100772.41;;;1.20;97.87
71145;BME280;58812;47.698;17.726;2024-02-14T00:18:14;100776.28;;;1.13;98.31
71145;BME280;58812;47.698;17.726;2024-02-14T00:20:40;100773.00;;;1.08;98.85
71145;BME280;58812;47.698;17.726;2024-02-14T00:23:05;100771.50;;;1.02;99.67
71145;BME280;58812;47.698;17.726;2024-02-14T00:25:31;100781.88;;;1.05;99.55
71145;BME280;58812;47.698;17.726;2024-02-14T00:27:56;100784.78;;;1.01;99.75
71145;BME280;58812;47.698;17.726;2024-02-14T00:30:24;100780.66;;;0.95;100.00
71145;BME280;58812;47.698;17.726;2024-02-14T00:32:50;100777.13;;;0.95;100.00
71145;BME280;58812;47.698;17.726;2024-02-14T00:35:15;100769.37;;;0.92;100.00
71145;BME280;58812;47.698;17.726;2024-02-14T00:37:40;100788.59;;;0.94;100.00
71145;BME280;58812;47.698;17.726;2024-02-14T00:40:06;100778.12;;;0.92;100.00
71145;BME280;58812;47.698;17.726;2024-02-14T00:42:32;100789.09;;;1.02;100.00
71145;BME280;58812;47.698;17.726;2024-02-14T00:44:58;100782.13;;;1.01;100.00
71145;BME280;58812;47.698;17.726;2024-02-14T00:47:23;100783.97;;;0.99;100.00
71145;BME280;58812;47.698;17.726;2024-02-14T00:49:48;100784.78;;;1.01;100.00
71145;BME280;58812;47.698;17.726;2024-02-14T00:52:14;100790.91;;;1.01;100.00
71145;BME280;58812;47.698;17.726;2024-02-14T00:54:39;100783.31;;;0.94;100.00
71145;BME280;58812;47.698;17.726;2024-02-14T00:57:05;100793.88;;;0.94;100.00
71145;BME280;58812;47.698;17.726;2024-02-14T00:59:30;100795.88;;;0.89;100.00
71145;BME280;58812;47.698;17.726;2024-02-14T01:01:55;100788.88;;;0.88;100.00
71145;BME280;58812;47.698;17.726;2024-02-14T01:04:21;100791.75;;;0.83;100.00
71145;BME280;58812;47.698;17.726;2024-02-14T01:06:46;100790.88;;;0.83;100.00
71145;BME280;58812;47.698;17.726;2024-02-14T01:09:13;100788.19;;;0.84;100.00
71145;BME280;58812;47.698;17.726;2024-02-14T01:11:38;100790.88;;;0.83;100.00
71145;BME280;58812;47.698;17.726;2024-02-14T01:14:04;100782.75;;;0.87;100.00
71145;BME280;58812;47.698;17.726;2024-02-14T01:16:29;100784.72;;;0.84;100.00
71145;BME280;58812;47.698;17.726;2024-02-14T01:18:55;100778.63;;;0.82;100.00
71145;BME280;58812;47.698;17.726;2024-02-14T01:21:20;100776.22;;;0.77;100.00
71145;BME280;58812;47.698;17.726;2024-02-14T01:23:46;100783.50;;;0.72;100.00
71145;BME280;58812;47.698;17.726;2024-02-14T01:26:11;100784.62;;;0.66;100.00
71145;BME280;58812;47.698;17.726;2024-02-14T01:28:37;100780.34;;;0.64;100.00
71145;BME280;58812;47.698;17.726;2024-02-14T01:31:03;100786.63;;;0.61;100.00
71145;BME280;58812;47.698;17.726;2024-02-14T01:33:28;100788.34;;;0.62;100.00
71145;BME280;58812;47.698;17.726;2024-02-14T01:35:56;100789.63;;;0.53;100.00
71145;BME280;58812;47.698;17.726;2024-02-14T01:38:22;100784.34;;;0.53;100.00
71145;BME280;58812;47.698;17.726;2024-02-14T01:40:48;100786.91;;;0.55;100.00
71145;BME280;58812;47.698;17.726;2024-02-14T01:43:13;100783.44;;;0.55;100.00
71145;BME280;58812;47.698;17.726;2024-02-14T01:45:39;100790.47;;;0.54;100.00
71145;BME280;58812;47.698;17.726;2024-02-14T01:48:06;100782.63;;;0.52;100.00
71145;BME280;58812;47.698;17.726;2024-02-14T01:50:32;100782.56;;;0.54;100.00
71145;BME280;58812;47.698;17.726;2024-02-14T01:52:59;100780.91;;;0.51;100.00
71145;BME280;58812;47.698;17.726;2024-02-14T01:55:27;100780.06;;;0.51;100.00
71145;BME280;58812;47.698;17.726;2024-02-14T01:57:54;100778.44;;;0.48;100.00
71145;BME280;58812;47.698;17.726;2024-02-14T02:00:19;100779.28;;;0.49;100.00
71145;BME280;58812;47.698;17.726;2024-02-14T02:02:45;100775.56;;;0.53;100.00
71145;BME280;58812;47.698;17.726;2024-02-14T02:05:12;100782.50;;;0.56;100.00
71145;BME280;58812;47.698;17.726;2024-02-14T02:07:38;100770.28;;;0.53;100.00
71145;BME280;58812;47.698;17.726;2024-02-14T02:10:08;100767.81;;;0.50;100.00
71145;BME280;58812;47.698;17.726;2024-02-14T02:12:34;100781.84;;;0.50;100.00
71145;BME280;58812;47.698;17.726;2024-02-14T02:14:59;100774.06;;;0.47;100.00
71145;BME280;58812;47.698;17.726;2024-02-14T02:17:25;100766.41;;;0.43;100.00
71145;BME280;58812;47.698;17.726;2024-02-14T02:19:53;100766.81;;;0.34;100.00
71145;BME280;58812;47.698;17.726;2024-02-14T02:22:19;100770.75;;;0.23;100.00
71145;BME280;58812;47.698;17.726;2024-02-14T02:24:45;100766.03;;;0.11;100.00
71145;BME280;58812;47.698;17.726;2024-02-14T02:27:11;100768.06;;;0.06;100.00
71145;BME280;58812;47.698;17.726;2024-02-14T02:29:39;100765.72;;;-0.02;100.00
71145;BME280;58812;47.698;17.726;2024-02-14T02:32:04;100770.16;;;-0.02;100.00
71145;BME280;58812;47.698;17.726;2024-02-14T02:34:31;100766.75;;;-0.04;100.00
71145;BME280;58812;47.698;17.726;2024-02-14T02:36:57;100774.91;;;-0.10;100.00
71145;BME280;58812;47.698;17.726;2024-02-14T02:39:22;100769.56;;;-0.09;100.00
71145;BME280;58812;47.698;17.726;2024-02-14T02:41:48;100771.69;;;-0.17;100.00
71145;BME280;58812;47.698;17.726;2024-02-14T02:44:15;100781.34;;;-0.17;100.00
71145;BME280;58812;47.698;17.726;2024-02-14T02:46:40;100783.09;;;-0.18;100.00
71145;BME280;58812;47.698;17.726;2024-02-14T02:49:06;100786.72;;;-0.20;100.00
71145;BME280;58812;47.698;17.726;2024-02-14T02:51:31;100792.25;;;-0.27;100.00
71145;BME280;58812;47.698;17.726;2024-02-14T02:53:57;100789.09;;;-0.35;100.00
71145;BME280;58812;47.698;17.726;2024-02-14T02:56:22;100792.63;;;-0.36;100.00
71145;BME280;58812;47.698;17.726;2024-02-14T02:58:53;100790.81;;;-0.34;100.00
71145;BME280;58812;47.698;17.726;2024-02-14T03:01:18;100795.22;;;-0.34;100.00
71145;BME280;58812;47.698;17.726;2024-02-14T03:03:44;100782.50;;;-0.45;100.00
71145;BME280;58812;47.698;17.726;2024-02-14T03:06:09;100793.78;;;-0.41;100.00
71145;BME280;58812;47.698;17.726;2024-02-14T03:08:35;100799.22;;;-0.46;100.00
71145;BME280;58812;47.698;17.726;2024-02-14T03:11:05;100797.50;;;-0.47;100.00
71145;BME280;58812;47.698;17.726;2024-02-14T03:13:31;100798.41;;;-0.48;100.00
71145;BME280;58812;47.698;17.726;2024-02-14T03:15:56;100794.88;;;-0.47;100.00
71145;BME280;58812;47.698;17.726;2024-02-14T03:18:26;100801.97;;;-0.49;100.00
71145;BME280;58812;47.698;17.726;2024-02-14T03:20:51;100809.19;;;-0.54;100.00
71145;BME280;58812;47.698;17.726;2024-02-14T03:23:19;100800.44;;;-0.55;100.00
71145;BME280;58812;47.698;17.726;2024-02-14T03:25:44;100806.63;;;-0.56;100.00
71145;BME280;58812;47.698;17.726;2024-02-14T03:28:09;100811.28;;;-0.62;100.00
71145;BME280;58812;47.698;17.726;2024-02-14T03:30:38;100818.25;;;-0.61;100.00
71145;BME280;58812;47.698;17.726;2024-02-14T03:33:05;100822.31;;;-0.54;100.00
71145;BME280;58812;47.698;17.726;2024-02-14T03:35:30;100821.72;;;-0.61;100.00
71145;BME280;58812;47.698;17.726;2024-02-14T03:37:56;100820.09;;;-0.63;100.00
71145;BME280;58812;47.698;17.726;2024-02-14T03:40:21;100824.50;;;-0.64;100.00
71145;BME280;58812;47.698;17.726;2024-02-14T03:42:47;100831.47;;;-0.63;100.00
71145;BME280;58812;47.698;17.726;2024-02-14T03:45:12;100830.00;;;-0.70;100.00
71145;BME280;58812;47.698;17.726;2024-02-14T03:47:39;100830.97;;;-0.72;100.00
71145;BME280;58812;47.698;17.726;2024-02-14T03:50:08;100830.16;;;-0.74;100.00
71145;BME280;58812;47.698;17.726;2024-02-14T03:52:34;100834.50;;;-0.73;100.00
71145;BME280;58812;47.698;17.726;2024-02-14T03:55:00;100839.91;;;-0.76;100.00
71145;BME280;58812;47.698;17.726;2024-02-14T03:57:26;100842.81;;;-0.84;100.00
71145;BME280;58812;47.698;17.726;2024-02-14T03:59:59;100842.88;;;-0.86;100.00
71145;BME280;58812;47.698;17.726;2024-02-14T04:02:26;100831.44;;;-0.85;100.00
71145;BME280;58812;47.698;17.726;2024-02-14T04:04:53;100841.41;;;-0.93;100.00
71145;BME280;58812;47.698;17.726;2024-02-14T04:07:19;100842.34;;;-0.94;100.00
71145;BME280;58812;47.698;17.726;2024-02-14T04:09:44;100846.53;;;-0.90;100.00
71145;BME280;58812;47.698;17.726;2024-02-14T04:12:09;100841.25;;;-0.88;100.00
71145;BME280;58812;47.698;17.726;2024-02-14T04:14:36;100849.06;;;-0.87;100.00
71145;BME280;58812;47.698;17.726;2024-02-14T04:17:03;100842.94;;;-0.87;100.00
71145;BME280;58812;47.698;17.726;2024-02-14T04:19:29;100843.06;;;-0.90;100.00
71145;BME280;58812;47.698;17.726;2024-02-14T04:21:54;100840.63;;;-0.95;100.00
71145;BME280;58812;47.698;17.726;2024-02-14T04:24:20;100847.69;;;-0.97;100.00
71145;BME280;58812;47.698;17.726;2024-02-14T04:26:46;100842.25;;;-0.92;100.00
71145;BME280;58812;47.698;17.726;2024-02-14T04:29:13;100837.19;;;-0.97;100.00
71145;BME280;58812;47.698;17.726;2024-02-14T04:31:38;100844.91;;;-0.92;100.00
71145;BME280;58812;47.698;17.726;2024-02-14T04:34:04;100834.44;;;-0.94;100.00
71145;BME280;58812;47.698;17.726;2024-02-14T04:36:30;100838.09;;;-0.98;100.00
71145;BME280;58812;47.698;17.726;2024-02-14T04:38:57;100849.53;;;-0.99;100.00
71145;BME280;58812;47.698;17.726;2024-02-14T04:41:22;100850.09;;;-1.14;100.00
71145;BME280;58812;47.698;17.726;2024-02-14T04:43:48;100848.62;;;-1.21;100.00
71145;BME280;58812;47.698;17.726;2024-02-14T04:46:13;100851.25;;;-1.21;100.00
71145;BME280;58812;47.698;17.726;2024-02-14T04:48:39;100847.59;;;-1.17;100.00
71145;BME280;58812;47.698;17.726;2024-02-14T04:51:05;100851.78;;;-1.12;100.00
71145;BME280;58812;47.698;17.726;2024-02-14T04:53:31;100852.19;;;-1.22;100.00
71145;BME280;58812;47.698;17.726;2024-02-14T04:55:56;100856.44;;;-1.20;100.00
71145;BME280;58812;47.698;17.726;2024-02-14T04:58:22;100854.66;;;-1.19;100.00
71145;BME280;58812;47.698;17.726;2024-02-14T05:00:47;100857.06;;;-1.13;100.00
71145;BME280;58812;47.698;17.726;2024-02-14T05:03:13;100854.34;;;-1.10;100.00
71145;BME280;58812;47.698;17.726;2024-02-14T05:05:38;100850.84;;;-1.11;100.00
71145;BME280;58812;47.698;17.726;2024-02-14T05:08:04;100851.72;;;-1.10;100.00
71145;BME280;58812;47.698;17.726;2024-02-14T05:10:32;100855.13;;;-1.08;100.00
71145;BME280;58812;47.698;17.726;2024-02-14T05:12:58;100865.88;;;-1.14;100.00
71145;BME280;58812;47.698;17.726;2024-02-14T05:15:23;100864.91;;;-1.12;100.00
71145;BME280;58812;47.698;17.726;2024-02-14T05:17:50;100869.53;;;-1.18;100.00
71145;BME280;58812;47.698;17.726;2024-02-14T05:20:16;100868.66;;;-1.19;100.00
71145;BME280;58812;47.698;17.726;2024-02-14T05:22:42;100879.16;;;-1.19;100.00
71145;BME280;58812;47.698;17.726;2024-02-14T05:25:08;100873.75;;;-1.14;100.00
71145;BME280;58812;47.698;17.726;2024-02-14T05:27:35;100878.22;;;-1.16;100.00
71145;BME280;58812;47.698;17.726;2024-02-14T05:30:01;100883.56;;;-1.19;100.00
71145;BME280;58812;47.698;17.726;2024-02-14T05:32:31;100879.16;;;-1.19;100.00
71145;BME280;58812;47.698;17.726;2024-02-14T05:34:57;100885.41;;;-1.21;100.00
71145;BME280;58812;47.698;17.726;2024-02-14T05:37:22;100891.75;;;-1.27;100.00
71145;BME280;58812;47.698;17.726;2024-02-14T05:39:47;100896.12;;;-1.27;100.00
71145;BME280;58812;47.698;17.726;2024-02-14T05:42:13;100897.22;;;-1.33;100.00
71145;BME280;58812;47.698;17.726;2024-02-14T05:44:38;100895.13;;;-1.23;100.00
71145;BME280;58812;47.698;17.726;2024-02-14T05:47:05;100891.03;;;-1.30;100.00
71145;BME280;58812;47.698;17.726;2024-02-14T05:49:30;100894.22;;;-1.22;100.00
71145;BME280;58812;47.698;17.726;2024-02-14T05:51:56;100895.13;;;-1.23;100.00
71145;BME280;58812;47.698;17.726;2024-02-14T05:54:21;100895.28;;;-1.28;100.00
71145;BME280;58812;47.698;17.726;2024-02-14T05:56:47;100896.28;;;-1.30;100.00
71145;BME280;58812;47.698;17.726;2024-02-14T05:59:12;100900.69;;;-1.32;100.00
71145;BME280;58812;47.698;17.726;2024-02-14T06:01:38;100903.31;;;-1.32;100.00
71145;BME280;58812;47.698;17.726;2024-02-14T06:04:03;100902.63;;;-1.38;100.00
71145;BME280;58812;47.698;17.726;2024-02-14T06:06:29;100893.91;;;-1.38;100.00
71145;BME280;58812;47.698;17.726;2024-02-14T06:08:54;100896.69;;;-1.43;100.00
71145;BME280;58812;47.698;17.726;2024-02-14T06:11:20;100907.09;;;-1.40;100.00
71145;BME280;58812;47.698;17.726;2024-02-14T06:13:49;100906.97;;;-1.37;100.00
71145;BME280;58812;47.698;17.726;2024-02-14T06:16:14;100912.03;;;-1.30;100.00
71145;BME280;58812;47.698;17.726;2024-02-14T06:18:39;100908.34;;;-1.26;100.00
71145;BME280;58812;47.698;17.726;2024-02-14T06:21:06;100909.97;;;-1.22;100.00
71145;BME280;58812;47.698;17.726;2024-02-14T06:23:31;100919.69;;;-1.24;100.00
71145;BME280;58812;47.698;17.726;2024-02-14T06:25:58;100917.91;;;-1.24;100.00
71145;BME280;58812;47.698;17.726;2024-02-14T06:28:23;100924.87;;;-1.23;100.00
71145;BME280;58812;47.698;17.726;2024-02-14T06:30:49;100925.44;;;-1.15;100.00
71145;BME280;58812;47.698;17.726;2024-02-14T06:33:14;100937.41;;;-1.06;100.00
71145;BME280;58812;47.698;17.726;2024-02-14T06:35:39;100938.03;;;-0.99;100.00
71145;BME280;58812;47.698;17.726;2024-02-14T06:38:05;100947.31;;;-0.91;100.00
71145;BME280;58812;47.698;17.726;2024-02-14T06:40:32;100941.59;;;-0.78;100.00
71145;BME280;58812;47.698;17.726;2024-02-14T06:42:57;100936.72;;;-0.66;100.00
71145;BME280;58812;47.698;17.726;2024-02-14T06:45:28;100949.59;;;-0.58;100.00
71145;BME280;58812;47.698;17.726;2024-02-14T06:47:53;100943.13;;;-0.49;100.00
71145;BME280;58812;47.698;17.726;2024-02-14T06:50:19;100946.25;;;-0.40;100.00
71145;BME280;58812;47.698;17.726;2024-02-14T06:52:45;100952.13;;;-0.33;100.00
71145;BME280;58812;47.698;17.726;2024-02-14T06:55:10;100964.91;;;-0.24;100.00
71145;BME280;58812;47.698;17.726;2024-02-14T06:57:36;100957.50;;;-0.14;100.00
71145;BME280;58812;47.698;17.726;2024-02-14T07:00:03;100950.03;;;-0.03;100.00
71145;BME280;58812;47.698;17.726;2024-02-14T07:02:31;100955.72;;;0.08;100.00
71145;BME280;58812;47.698;17.726;2024-02-14T07:04:56;100950.69;;;0.24;100.00
71145;BME280;58812;47.698;17.726;2024-02-14T07:07:21;100958.66;;;0.43;100.00
71145;BME280;58812;47.698;17.726;2024-02-14T07:09:47;100960.62;;;0.58;100.00
71145;BME280;58812;47.698;17.726;2024-02-14T07:12:13;100959.13;;;0.73;100.00
71145;BME280;58812;47.698;17.726;2024-02-14T07:14:38;100966.06;;;0.94;100.00
71145;BME280;58812;47.698;17.726;2024-02-14T07:17:03;100967.88;;;1.13;100.00
71145;BME280;58812;47.698;17.726;2024-02-14T07:19:29;100965.56;;;1.25;100.00
71145;BME280;58812;47.698;17.726;2024-02-14T07:21:54;100963.91;;;1.42;100.00
71145;BME280;58812;47.698;17.726;2024-02-14T07:24:20;100963.03;;;1.60;100.00
71145;BME280;58812;47.698;17.726;2024-02-14T07:26:45;100969.19;;;1.79;100.00
71145;BME280;58812;47.698;17.726;2024-02-14T07:29:11;100961.12;;;2.00;100.00
71145;BME280;58812;47.698;17.726;2024-02-14T07:31:36;100968.25;;;2.17;100.00
71145;BME280;58812;47.698;17.726;2024-02-14T07:34:02;100976.28;;;2.50;100.00
71145;BME280;58812;47.698;17.726;2024-02-14T07:36:29;100976.72;;;2.75;100.00
71145;BME280;58812;47.698;17.726;2024-02-14T07:38:54;100976.09;;;2.87;100.00
71145;BME280;58812;47.698;17.726;2024-02-14T07:41:20;100980.81;;;2.98;100.00
71145;BME280;58812;47.698;17.726;2024-02-14T07:43:45;100981.63;;;3.16;98.65
71145;BME280;58812;47.698;17.726;2024-02-14T07:46:11;100976.72;;;3.41;97.51
71145;BME280;58812;47.698;17.726;2024-02-14T07:48:37;100977.94;;;3.52;96.10
71145;BME280;58812;47.698;17.726;2024-02-14T07:51:07;100979.81;;;3.65;95.99
71145;BME280;58812;47.698;17.726;2024-02-14T07:53:33;100984.78;;;3.87;95.77
71145;BME280;58812;47.698;17.726;2024-02-14T07:55:58;100982.37;;;3.98;94.71
71145;BME280;58812;47.698;17.726;2024-02-14T07:58:23;100991.50;;;4.09;94.24
71145;BME280;58812;47.698;17.726;2024-02-14T08:00:49;100982.53;;;4.11;93.51
71145;BME280;58812;47.698;17.726;2024-02-14T08:03:14;100991.50;;;4.09;93.58
71145;BME280;58812;47.698;17.726;2024-02-14T08:05:40;100992.44;;;4.08;92.58
71145;BME280;58812;47.698;17.726;2024-02-14T08:08:07;100987.28;;;4.20;93.51
71145;BME280;58812;47.698;17.726;2024-02-14T08:10:32;100993.78;;;4.15;91.83
71145;BME280;58812;47.698;17.726;2024-02-14T08:12:57;101002.34;;;4.20;92.36
71145;BME280;58812;47.698;17.726;2024-02-14T08:15:24;100993.63;;;4.18;92.17
71145;BME280;58812;47.698;17.726;2024-02-14T08:17:49;100998.94;;;4.18;91.72
71145;BME280;58812;47.698;17.726;2024-02-14T08:20:15;100995.94;;;4.24;91.27
71145;BME280;58812;47.698;17.726;2024-02-14T08:22:40;101000.88;;;4.30;90.94
71145;BME280;58812;47.698;17.726;2024-02-14T08:25:06;101007.38;;;4.24;89.86
71145;BME280;58812;47.698;17.726;2024-02-14T08:27:32;101004.03;;;4.21;89.08
71145;BME280;58812;47.698;17.726;2024-02-14T08:29:57;101000.13;;;4.28;88.33
71145;BME280;58812;47.698;17.726;2024-02-14T08:32:23;101004.53;;;4.43;89.36
71145;BME280;58812;47.698;17.726;2024-02-14T08:34:48;101007.00;;;4.46;89.48
71145;BME280;58812;47.698;17.726;2024-02-14T08:37:15;101003.22;;;4.50;88.76
71145;BME280;58812;47.698;17.726;2024-02-14T08:39:41;100997.59;;;4.71;87.46
71145;BME280;58812;47.698;17.726;2024-02-14T08:42:06;100999.75;;;4.94;88.38
71145;BME280;58812;47.698;17.726;2024-02-14T08:44:35;100999.66;;;5.10;86.21
71145;BME280;58812;47.698;17.726;2024-02-14T08:47:03;100997.19;;;5.50;84.97
71145;BME280;58812;47.698;17.726;2024-02-14T08:49:28;101003.34;;;5.65;82.92
71145;BME280;58812;47.698;17.726;2024-02-14T08:51:54;100997.44;;;5.88;81.51
71145;BME280;58812;47.698;17.726;2024-02-14T08:54:19;101002.53;;;6.05;79.21
71145;BME280;58812;47.698;17.726;2024-02-14T08:56:46;101000.94;;;6.30;80.07
71145;BME280;58812;47.698;17.726;2024-02-14T08:59:12;101005.03;;;6.48;78.49
71145;BME280;58812;47.698;17.726;2024-02-14T09:01:38;101008.03;;;6.56;78.44
71145;BME280;58812;47.698;17.726;2024-02-14T09:04:03;101011.06;;;6.37;77.57
71145;BME280;58812;47.698;17.726;2024-02-14T09:06:29;101012.63;;;6.67;78.01
71145;BME280;58812;47.698;17.726;2024-02-14T09:08:54;101010.81;;;6.67;74.89
71145;BME280;58812;47.698;17.726;2024-02-14T09:11:20;101011.38;;;6.98;75.45
71145;BME280;58812;47.698;17.726;2024-02-14T09:13:46;101021.09;;;7.50;73.97
71145;BME280;58812;47.698;17.726;2024-02-14T09:16:13;101017.94;;;7.82;71.70
71145;BME280;58812;47.698;17.726;2024-02-14T09:18:40;101030.00;;;8.35;71.83
71145;BME280;58812;47.698;17.726;2024-02-14T09:21:06;101027.72;;;8.54;68.73
71145;BME280;58812;47.698;17.726;2024-02-14T09:23:31;101025.31;;;8.98;67.33
71145;BME280;58812;47.698;17.726;2024-02-14T09:25:57;101030.78;;;8.96;64.92
71145;BME280;58812;47.698;17.726;2024-02-14T09:28:23;101031.16;;;9.03;64.44
71145;BME280;58812;47.698;17.726;2024-02-14T09:30:50;101024.34;;;8.99;64.58
71145;BME280;58812;47.698;17.726;2024-02-14T09:33:15;101027.56;;;9.26;64.73
71145;BME280;58812;47.698;17.726;2024-02-14T09:35:41;101024.84;;;8.21;66.45
71145;BME280;58812;47.698;17.726;2024-02-14T09:38:12;101027.31;;;8.11;67.95
71145;BME280;58812;47.698;17.726;2024-02-14T09:40:40;101032.59;;;8.00;66.80
71145;BME280;58812;47.698;17.726;2024-02-14T09:45:50;101025.62;;;8.10;66.54
71145;BME280;58812;47.698;17.726;2024-02-14T09:48:16;101024.53;;;8.25;67.60
71145;BME280;58812;47.698;17.726;2024-02-14T09:50:42;101031.81;;;8.35;66.19
71145;BME280;58812;47.698;17.726;2024-02-14T09:53:09;101023.37;;;8.17;68.71
71145;BME280;58812;47.698;17.726;2024-02-14T09:55:36;101019.38;;;7.98;67.34
71145;BME280;58812;47.698;17.726;2024-02-14T09:58:02;101017.72;;;8.45;66.27
71145;BME280;58812;47.698;17.726;2024-02-14T10:00:31;101022.09;;;9.28;64.55
71145;BME280;58812;47.698;17.726;2024-02-14T10:02:56;101029.91;;;8.85;65.22
71145;BME280;58812;47.698;17.726;2024-02-14T10:05:22;101023.91;;;9.16;63.60
71145;BME280;58812;47.698;17.726;2024-02-14T10:07:48;101012.87;;;8.74;63.64
71145;BME280;58812;47.698;17.726;2024-02-14T10:10:13;101016.25;;;8.76;64.90
71145;BME280;58812;47.698;17.726;2024-02-14T10:12:39;101015.41;;;8.41;65.19
71145;BME280;58812;47.698;17.726;2024-02-14T10:15:07;101012.97;;;9.08;63.95
71145;BME280;58812;47.698;17.726;2024-02-14T10:17:33;101012.31;;;8.58;65.54
71145;BME280;58812;47.698;17.726;2024-02-14T10:20:00;101013.03;;;8.49;64.53
71145;BME280;58812;47.698;17.726;2024-02-14T10:22:37;101002.56;;;8.46;65.09
71145;BME280;58812;47.698;17.726;2024-02-14T10:25:04;100998.06;;;8.81;64.69
71145;BME280;58812;47.698;17.726;2024-02-14T10:27:36;101001.69;;;8.69;66.22
71145;BME280;58812;47.698;17.726;2024-02-14T10:30:09;101000.72;;;8.70;65.03
71145;BME280;58812;47.698;17.726;2024-02-14T10:32:39;101006.13;;;8.57;64.12
71145;BME280;58812;47.698;17.726;2024-02-14T10:35:06;100999.56;;;8.86;64.97
71145;BME280;58812;47.698;17.726;2024-02-14T10:37:36;100996.72;;;9.45;62.24
71145;BME280;58812;47.698;17.726;2024-02-14T10:40:03;100995.75;;;9.68;61.50
71145;BME280;58812;47.698;17.726;2024-02-14T10:42:33;101003.13;;;9.87;60.33
71145;BME280;58812;47.698;17.726;2024-02-14T10:44:59;100994.75;;;9.47;60.01
71145;BME280;58812;47.698;17.726;2024-02-14T10:47:34;100996.09;;;9.63;58.84
71145;BME280;58812;47.698;17.726;2024-02-14T10:50:02;100992.03;;;10.03;59.89
71145;BME280;58812;47.698;17.726;2024-02-14T10:52:35;100989.91;;;9.63;58.76
71145;BME280;58812;47.698;17.726;2024-02-14T10:55:03;100992.22;;;10.86;57.25
71145;BME280;58812;47.698;17.726;2024-02-14T10:57:29;100992.34;;;10.64;57.37
71145;BME280;58812;47.698;17.726;2024-02-14T10:59:55;100984.38;;;10.94;55.17
71145;BME280;58812;47.698;17.726;2024-02-14T11:02:23;100986.44;;;11.33;53.83
71145;BME280;58812;47.698;17.726;2024-02-14T11:04:49;100979.34;;;11.62;53.97
71145;BME280;58812;47.698;17.726;2024-02-14T11:07:19;100972.72;;;12.07;52.59
71145;BME280;58812;47.698;17.726;2024-02-14T11:09:45;100971.16;;;11.03;56.07
71145;BME280;58812;47.698;17.726;2024-02-14T11:12:11;100975.19;;;11.39;53.82
71145;BME280;58812;47.698;17.726;2024-02-14T11:14:37;100976.09;;;11.28;54.40
71145;BME280;58812;47.698;17.726;2024-02-14T11:17:13;100969.41;;;10.71;55.41
71145;BME280;58812;47.698;17.726;2024-02-14T11:19:38;100957.78;;;9.97;57.92
71145;BME280;58812;47.698;17.726;2024-02-14T11:22:18;100957.19;;;10.25;57.32
71145;BME280;58812;47.698;17.726;2024-02-14T11:24:47;100954.56;;;10.67;55.97
71145;BME280;58812;47.698;17.726;2024-02-14T11:27:14;100951.56;;;10.39;56.21
71145;BME280;58812;47.698;17.726;2024-02-14T11:29:52;100954.03;;;10.73;56.25
71145;BME280;58812;47.698;17.726;2024-02-14T11:32:18;100946.84;;;9.88;57.82
71145;BME280;58812;47.698;17.726;2024-02-14T11:34:53;100937.81;;;9.89;57.42
71145;BME280;58812;47.698;17.726;2024-02-14T11:37:20;100934.44;;;9.87;56.73
71145;BME280;58812;47.698;17.726;2024-02-14T11:39:46;100930.25;;;10.06;57.74
71145;BME280;58812;47.698;17.726;2024-02-14T11:42:11;100926.62;;;10.60;57.19
71145;BME280;58812;47.698;17.726;2024-02-14T11:44:40;100928.19;;;10.83;56.35
71145;BME280;58812;47.698;17.726;2024-02-14T11:47:09;100923.75;;;10.20;57.03
71145;BME280;58812;47.698;17.726;2024-02-14T11:49:35;100926.03;;;10.35;57.07
71145;BME280;58812;47.698;17.726;2024-02-14T11:52:01;100924.19;;;10.04;56.70
71145;BME280;58812;47.698;17.726;2024-02-14T11:54:27;100922.28;;;9.83;58.18
71145;BME280;58812;47.698;17.726;2024-02-14T11:56:52;100923.69;;;10.10;58.02
71145;BME280;58812;47.698;17.726;2024-02-14T11:59:18;100931.09;;;10.50;57.90
71145;BME280;58812;47.698;17.726;2024-02-14T12:01:45;100916.13;;;10.68;56.79
71145;BME280;58812;47.698;17.726;2024-02-14T12:04:11;100925.25;;;10.86;56.12
71145;BME280;58812;47.698;17.726;2024-02-14T12:06:40;100920.94;;;9.89;58.07
71145;BME280;58812;47.698;17.726;2024-02-14T12:09:08;100911.34;;;10.51;57.47
71145;BME280;58812;47.698;17.726;2024-02-14T12:11:38;100909.34;;;11.65;54.38
71145;BME280;58812;47.698;17.726;2024-02-14T12:14:07;100916.28;;;11.28;55.13
71145;BME280;58812;47.698;17.726;2024-02-14T12:16:34;100909.44;;;11.14;56.29
71145;BME280;58812;47.698;17.726;2024-02-14T12:19:06;100916.06;;;11.10;55.93
71145;BME280;58812;47.698;17.726;2024-02-14T12:21:37;100898.03;;;10.39;58.81
71145;BME280;58812;47.698;17.726;2024-02-14T12:24:06;100904.28;;;10.70;58.43
71145;BME280;58812;47.698;17.726;2024-02-14T12:26:32;100901.00;;;10.25;59.92
71145;BME280;58812;47.698;17.726;2024-02-14T12:29:01;100898.97;;;9.85;60.63
71145;BME280;58812;47.698;17.726;2024-02-14T12:31:28;100898.19;;;9.95;60.24
71145;BME280;58812;47.698;17.726;2024-02-14T12:33:56;100894.87;;;10.76;57.72
71145;BME280;58812;47.698;17.726;2024-02-14T12:36:25;100901.44;;;11.64;55.91
71145;BME280;58812;47.698;17.726;2024-02-14T12:38:50;100888.19;;;11.22;56.54